Time;durP1;ratioP1;P1;durP2;ratioP2;P2;SDS_P1;SDS_P2;PMS_P1;PMS_P2;Temp;Humidity;BMP_temperature;BMP_pressure;BME280_temperature;BME280_humidity;BME280_pressure;Samples;Min_cycle;Max_cycle;Signal;HPM_P1;HPM_P2
2023/05/16 00:00:05;;;;;;;2.22;1.12;;;;;;;12.12;100.00;98246.19;4500960;31;20827;-63
2023/05/16 00:02:32;;;;;;;3.60;0.98;;;;;;;12.05;100.00;98240.72;4501094;31;20115;-63
2023/05/16 00:05:03;;;;;;;2.30;1.10;;;;;;;12.03;100.00;98240.06;4499558;31;20514;-63
2023/05/16 00:07:32;;;;;;;2.28;1.02;;;;;;;11.97;100.00;98241.53;4500873;31;20574;-62
2023/05/16 00:09:59;;;;;;;2.75;1.05;;;;;;;11.96;100.00;98233.81;4500954;31;20159;-62
2023/05/16 00:12:27;;;;;;;1.75;1.05;;;;;;;11.97;100.00;98235.47;4495106;31;20152;-63
2023/05/16 00:14:54;;;;;;;1.15;1.00;;;;;;;11.90;100.00;98228.19;4488217;31;20108;-62
2023/05/16 00:17:22;;;;;;;1.15;1.00;;;;;;;11.84;100.00;98215.72;4501024;31;20167;-63
2023/05/16 00:19:56;;;;;;;1.50;1.15;;;;;;;11.83;100.00;98208.81;4501080;31;20174;-63
2023/05/16 00:22:24;;;;;;;4.20;1.85;;;;;;;11.85;100.00;98212.13;4500902;31;20550;-62
2023/05/16 00:24:52;;;;;;;1.55;1.00;;;;;;;11.78;100.00;98205.84;4500666;31;20088;-62
2023/05/16 00:27:19;;;;;;;2.05;1.20;;;;;;;11.75;100.00;98210.56;4500921;31;20096;-62
2023/05/16 00:29:48;;;;;;;1.55;0.95;;;;;;;11.70;100.00;98219.75;4500639;31;20118;-62
2023/05/16 00:32:17;;;;;;;2.75;1.10;;;;;;;11.70;100.00;98224.16;4500923;31;20461;-63
2023/05/16 00:34:44;;;;;;;2.08;1.08;;;;;;;11.69;100.00;98225.16;4500621;31;20084;-62
2023/05/16 00:37:13;;;;;;;2.90;0.98;;;;;;;11.67;100.00;98224.50;4500582;31;20096;-62
2023/05/16 00:39:40;;;;;;;2.53;0.85;;;;;;;11.67;100.00;98229.72;4500781;31;20083;-62
2023/05/16 00:42:07;;;;;;;4.53;1.00;;;;;;;11.64;100.00;98227.44;4500636;31;20143;-62
2023/05/16 00:44:34;;;;;;;0.70;0.70;;;;;;;11.62;100.00;98227.59;4499664;31;20445;-63
2023/05/16 00:47:03;;;;;;;0.82;0.80;;;;;;;11.60;100.00;98228.75;4500636;31;20539;-62
2023/05/16 00:49:30;;;;;;;0.90;0.80;;;;;;;11.62;100.00;98237.28;4500644;31;20401;-62
2023/05/16 00:51:57;;;;;;;4.97;0.93;;;;;;;11.61;100.00;98233.84;4499557;31;20088;-62
2023/05/16 00:54:27;;;;;;;1.70;1.10;;;;;;;11.61;100.00;98235.63;4499089;31;20106;-62
2023/05/16 00:56:55;;;;;;;2.78;1.50;;;;;;;11.62;100.00;98245.12;4500276;31;20119;-62
2023/05/16 00:59:23;;;;;;;5.80;1.50;;;;;;;11.59;100.00;98238.41;4500606;31;20091;-62
2023/05/16 01:01:51;;;;;;;5.75;1.10;;;;;;;11.55;100.00;98237.06;4499263;31;20096;-62
2023/05/16 01:04:19;;;;;;;1.20;0.95;;;;;;;11.43;100.00;98236.53;4500707;31;20665;-62
2023/05/16 01:06:47;;;;;;;1.15;0.77;;;;;;;11.39;100.00;98250.91;4499968;31;20175;-62
2023/05/16 01:09:14;;;;;;;1.27;1.00;;;;;;;11.42;100.00;98262.91;4500382;31;20166;-62
2023/05/16 01:11:50;;;;;;;3.22;1.40;;;;;;;11.43;100.00;98259.28;4499529;31;20088;-63
2023/05/16 01:14:45;;;;;;;1.52;0.93;;;;;;;11.46;100.00;98243.25;4484510;31;20139;-62
2023/05/16 01:17:25;;;;;;;0.70;0.70;;;;;;;11.48;100.00;98234.25;4484435;32;20103;-62
2023/05/16 01:20:03;;;;;;;0.98;0.80;;;;;;;11.49;100.00;98233.28;4483323;32;20139;-62
2023/05/16 01:22:59;;;;;;;1.55;0.90;;;;;;;11.47;100.00;98229.97;4483265;32;20080;-62
2023/05/16 01:25:27;;;;;;;;;;;;;;;11.49;100.00;98229.81;4420080;32;20086;-62
2023/05/16 01:27:56;;;;;;;0.82;0.70;;;;;;;11.53;100.00;98234.59;4419783;32;20009;-62
2023/05/16 01:30:24;;;;;;;0.60;0.50;;;;;;;11.60;100.00;98239.25;4407046;32;20129;-62
2023/05/16 01:32:51;;;;;;;0.85;0.70;;;;;;;11.60;100.00;98247.09;4419711;32;20575;-62
2023/05/16 01:35:19;;;;;;;0.70;0.70;;;;;;;11.53;100.00;98226.72;4419711;32;20143;-62
2023/05/16 01:38:03;;;;;;;1.62;0.75;;;;;;;11.62;100.00;98213.66;4407059;32;20725;-62
2023/05/16 01:40:52;;;;;;;6.45;0.90;;;;;;;11.61;100.00;98215.47;4407357;32;20558;-62
2023/05/16 01:43:30;;;;;;;0.95;0.75;;;;;;;11.65;100.00;98214.16;4419827;32;20089;-62
2023/05/16 01:46:03;;;;;;;2.90;0.93;;;;;;;11.61;100.00;98214.62;4407083;32;20108;-62
2023/05/16 01:48:35;;;;;;;0.70;0.65;;;;;;;11.66;100.00;98207.12;4419904;32;20102;-62
2023/05/16 01:51:03;;;;;;;0.98;0.90;;;;;;;11.60;100.00;98203.31;4407103;32;20709;-62
2023/05/16 01:53:38;;;;;;;1.00;0.85;;;;;;;11.55;100.00;98202.94;4407113;32;20105;-62
2023/05/16 01:56:09;;;;;;;0.60;0.50;;;;;;;11.46;100.00;98206.53;4419782;32;20186;-63
2023/05/16 01:58:36;;;;;;;0.95;0.82;;;;;;;11.42;100.00;98197.34;4421684;32;20181;-62
2023/05/16 02:01:05;;;;;;;0.80;0.70;;;;;;;11.44;100.00;98195.37;4408871;32;20168;-62
2023/05/16 02:03:33;;;;;;;1.10;0.80;;;;;;;11.45;100.00;98189.16;4481057;32;20163;-62
2023/05/16 02:06:01;;;;;;;0.73;0.70;;;;;;;11.44;100.00;98187.50;4485925;31;20088;-62
2023/05/16 02:08:28;;;;;;;1.30;0.90;;;;;;;11.45;100.00;98197.03;4486006;32;20135;-62
2023/05/16 02:10:55;;;;;;;1.17;0.98;;;;;;;11.44;100.00;98188.31;4486323;31;20151;-62
2023/05/16 02:13:22;;;;;;;1.48;0.95;;;;;;;11.37;100.00;98203.06;4497841;31;20088;-62
2023/05/16 02:15:51;;;;;;;0.75;0.75;;;;;;;11.31;100.00;98201.87;4492340;31;20485;-62
2023/05/16 02:18:19;;;;;;;0.70;0.70;;;;;;;11.29;100.00;98205.62;4486073;31;20113;-62
2023/05/16 02:20:46;;;;;;;1.23;0.73;;;;;;;11.29;100.00;98197.75;4486142;31;20446;-62
2023/05/16 02:23:15;;;;;;;1.27;0.98;;;;;;;11.21;100.00;98190.66;4485808;32;20084;-62
2023/05/16 02:25:42;;;;;;;1.25;0.98;;;;;;;11.19;100.00;98172.47;4485886;31;20144;-62
2023/05/16 02:28:10;;;;;;;1.20;0.90;;;;;;;11.12;100.00;98165.38;4485895;31;20148;-62
2023/05/16 02:30:37;;;;;;;0.93;0.80;;;;;;;11.12;100.00;98168.00;4485889;31;20119;-62
2023/05/16 02:33:05;;;;;;;1.00;0.90;;;;;;;11.11;100.00;98159.34;4485820;32;20093;-62
2023/05/16 02:35:32;;;;;;;1.55;1.20;;;;;;;11.09;100.00;98153.41;4485904;31;20568;-62
2023/05/16 02:37:59;;;;;;;1.12;1.02;;;;;;;11.14;100.00;98148.53;4485716;31;20169;-62
2023/05/16 02:40:26;;;;;;;1.27;1.10;;;;;;;11.13;100.00;98159.97;4485967;31;20116;-62
2023/05/16 02:42:55;;;;;;;0.70;0.60;;;;;;;11.19;100.00;98180.34;4485594;31;20133;-62
2023/05/16 02:45:22;;;;;;;1.95;0.90;;;;;;;11.18;100.00;98170.00;4485899;31;20076;-62
2023/05/16 02:47:50;;;;;;;1.08;0.90;;;;;;;11.13;100.00;98183.59;4485617;32;20386;-62
2023/05/16 02:50:17;;;;;;;0.90;0.80;;;;;;;11.12;100.00;98187.16;4485879;32;20153;-62
2023/05/16 02:52:46;;;;;;;1.20;0.90;;;;;;;11.10;100.00;98197.00;4485656;31;20157;-62
2023/05/16 02:55:13;;;;;;;1.30;0.80;;;;;;;11.10;100.00;98204.06;4485657;31;20080;-62
2023/05/16 02:57:43;;;;;;;1.35;0.90;;;;;;;11.11;100.00;98190.78;4485378;31;20100;-62
2023/05/16 03:00:13;;;;;;;2.60;0.93;;;;;;;11.11;100.00;98166.34;4485768;31;20085;-62
2023/05/16 03:02:42;;;;;;;1.62;0.90;;;;;;;11.10;100.00;98156.87;4485665;31;20100;-62
2023/05/16 03:05:10;;;;;;;1.67;0.80;;;;;;;11.12;100.00;98142.59;4485771;31;20136;-62
2023/05/16 03:07:37;;;;;;;3.75;0.90;;;;;;;11.17;100.00;98134.28;4485006;31;20131;-62
2023/05/16 03:10:05;;;;;;;3.78;0.80;;;;;;;11.18;100.00;98149.84;4484422;32;20157;-62
2023/05/16 03:12:33;;;;;;;0.75;0.68;;;;;;;11.14;100.00;98153.78;4491809;31;20465;-62
2023/05/16 03:15:00;;;;;;;1.17;1.08;;;;;;;11.11;100.00;98159.34;4497348;31;20154;-62
2023/05/16 03:17:28;;;;;;;4.25;1.20;;;;;;;11.12;100.00;98163.56;4485545;31;20621;-62
2023/05/16 03:19:56;;;;;;;1.67;0.85;;;;;;;11.13;100.00;98165.22;4485511;32;20458;-62
2023/05/16 03:22:23;;;;;;;1.85;0.90;;;;;;;11.17;100.00;98170.97;4485573;31;20541;-62
2023/05/16 03:24:50;;;;;;;0.80;0.70;;;;;;;11.15;100.00;98178.19;4485498;32;20103;-62
2023/05/16 03:27:18;;;;;;;3.15;0.70;;;;;;;11.14;100.00;98173.91;4485519;31;20096;-62
2023/05/16 03:29:45;;;;;;;0.95;0.62;;;;;;;11.18;100.00;98170.00;4485377;31;20134;-62
2023/05/16 03:32:13;;;;;;;1.33;0.98;;;;;;;11.16;100.00;98172.78;4485595;31;20477;-62
2023/05/16 03:34:40;;;;;;;1.25;0.93;;;;;;;11.18;100.00;98178.69;4485389;32;20080;-62
2023/05/16 03:37:09;;;;;;;1.08;0.88;;;;;;;11.26;100.00;98179.72;4485310;31;20148;-62
2023/05/16 03:39:37;;;;;;;1.30;0.80;;;;;;;11.26;100.00;98169.22;4484182;32;20179;-62
2023/05/16 03:42:04;;;;;;;0.88;0.77;;;;;;;11.29;100.00;98158.41;4485392;31;20149;-62
2023/05/16 03:44:32;;;;;;;1.45;0.90;;;;;;;11.28;100.00;98148.91;4485283;32;20079;-62
2023/05/16 03:46:59;;;;;;;0.70;0.70;;;;;;;11.39;100.00;98147.81;4485378;31;20210;-62
2023/05/16 03:49:29;;;;;;;1.20;0.90;;;;;;;11.44;100.00;98151.59;4485327;31;20096;-62
2023/05/16 03:51:57;;;;;;;1.50;1.10;;;;;;;11.41;100.00;98158.97;4485502;31;20474;-62
2023/05/16 03:54:24;;;;;;;0.80;0.80;;;;;;;11.40;100.00;98152.91;4485262;31;20619;-62
2023/05/16 03:56:51;;;;;;;1.37;0.70;;;;;;;11.37;100.00;98150.59;4485130;31;20159;-62
2023/05/16 03:59:18;;;;;;;3.55;1.15;;;;;;;11.44;100.00;98156.84;4485297;31;20443;-63
2023/05/16 04:01:46;;;;;;;1.08;0.80;;;;;;;11.46;100.00;98154.91;4485275;32;20122;-63
2023/05/16 04:04:14;;;;;;;1.90;0.90;;;;;;;11.42;100.00;98132.59;4485008;31;20119;-62
2023/05/16 04:06:41;;;;;;;0.90;0.68;;;;;;;11.46;100.00;98136.53;4485262;31;20106;-62
2023/05/16 04:09:08;;;;;;;1.23;0.75;;;;;;;11.54;100.00;98143.63;4485226;31;20096;-62
2023/05/16 04:11:37;;;;;;;1.20;0.80;;;;;;;11.53;100.00;98140.16;4494721;31;20107;-62
2023/05/16 04:14:05;;;;;;;7.40;0.80;;;;;;;11.56;100.00;98149.50;4484612;31;20512;-62
2023/05/16 04:16:32;;;;;;;1.15;0.80;;;;;;;11.60;100.00;98153.47;4499018;31;20159;-62
2023/05/16 04:19:00;;;;;;;1.30;0.80;;;;;;;11.63;100.00;98155.78;4499599;31;20143;-62
2023/05/16 04:21:27;;;;;;;0.95;0.60;;;;;;;11.65;100.00;98156.44;4500808;31;20141;-62
2023/05/16 04:23:54;;;;;;;0.90;0.73;;;;;;;11.72;100.00;98157.44;4500849;31;20080;-62
2023/05/16 04:26:22;;;;;;;1.92;0.70;;;;;;;11.79;100.00;98178.59;4500883;31;20113;-63
2023/05/16 04:28:49;;;;;;;1.33;0.90;;;;;;;11.82;100.00;98188.78;4500681;31;20135;-63
2023/05/16 04:31:17;;;;;;;0.90;0.70;;;;;;;11.83;100.00;98189.63;4486451;31;20144;-63
2023/05/16 04:33:44;;;;;;;0.98;0.60;;;;;;;11.84;100.00;98191.25;4484973;31;20076;-63
2023/05/16 04:36:12;;;;;;;3.00;0.70;;;;;;;11.91;100.00;98200.13;4484936;31;20119;-63
2023/05/16 04:38:40;;;;;;;1.55;0.77;;;;;;;11.89;100.00;98207.34;4482848;32;20081;-63
2023/05/16 04:41:08;;;;;;;1.17;0.90;;;;;;;11.94;100.00;98194.59;4481870;32;20139;-63
2023/05/16 04:43:35;;;;;;;2.47;0.95;;;;;;;11.88;100.00;98188.19;4492333;31;20164;-64
2023/05/16 04:46:02;;;;;;;1.95;0.85;;;;;;;11.83;100.00;98185.19;4500146;31;20088;-63
2023/05/16 04:48:31;;;;;;;3.33;0.95;;;;;;;11.84;100.00;98184.22;4498868;31;20577;-63
2023/05/16 04:50:58;;;;;;;1.10;0.90;;;;;;;11.84;100.00;98186.00;4492450;31;21029;-63
2023/05/16 04:53:25;;;;;;;1.30;0.90;;;;;;;11.82;100.00;98185.34;4491365;31;20096;-63
2023/05/16 04:55:52;;;;;;;1.10;0.90;;;;;;;11.87;100.00;98191.78;4494573;31;20529;-63
2023/05/16 04:58:22;;;;;;;1.20;0.77;;;;;;;11.89;100.00;98200.28;4492459;31;20095;-65
2023/05/16 05:00:51;;;;;;;1.67;0.80;;;;;;;11.94;100.00;98201.66;4494627;31;20546;-63
2023/05/16 05:03:19;;;;;;;0.80;0.80;;;;;;;11.94;100.00;98199.84;4497643;31;20147;-63
2023/05/16 05:05:47;;;;;;;1.62;1.27;;;;;;;11.93;100.00;98198.22;4488889;31;20095;-64
2023/05/16 05:08:15;;;;;;;1.17;1.05;;;;;;;11.96;100.00;98197.06;4489305;31;20156;-64
2023/05/16 05:10:42;;;;;;;4.62;1.15;;;;;;;11.96;100.00;98192.66;4488460;31;20131;-63
2023/05/16 05:13:10;;;;;;;0.80;0.80;;;;;;;12.07;100.00;98200.22;4497870;31;20728;-64
2023/05/16 05:15:37;;;;;;;3.22;1.20;;;;;;;12.04;100.00;98208.41;4492004;31;20130;-64
2023/05/16 05:18:05;;;;;;;0.73;0.68;;;;;;;12.07;100.00;98208.09;4489382;31;20088;-63
2023/05/16 05:20:32;;;;;;;3.35;0.95;;;;;;;12.12;100.00;98214.69;4489403;31;21330;-65
2023/05/16 05:22:59;;;;;;;1.05;0.85;;;;;;;12.15;100.00;98206.47;4485975;31;20104;-65
2023/05/16 05:25:27;;;;;;;2.17;0.90;;;;;;;12.19;100.00;98203.38;4488976;31;20169;-64
2023/05/16 05:27:55;;;;;;;3.87;1.20;;;;;;;12.20;100.00;98205.03;4493547;31;20096;-65
2023/05/16 05:30:23;;;;;;;2.05;1.00;;;;;;;12.16;100.00;98203.69;4487135;31;20136;-65
2023/05/16 05:32:52;;;;;;;1.40;1.00;;;;;;;12.18;100.00;98199.09;4488795;31;20480;-64
2023/05/16 05:35:19;;;;;;;1.40;0.95;;;;;;;12.17;100.00;98199.25;4496507;31;20571;-64
2023/05/16 05:37:46;;;;;;;1.25;1.05;;;;;;;12.12;100.00;98202.34;4493831;31;20491;-64
2023/05/16 05:40:15;;;;;;;1.92;1.08;;;;;;;12.05;100.00;98198.72;4490988;31;20177;-64
2023/05/16 05:42:42;;;;;;;1.70;1.20;;;;;;;12.10;100.00;98198.25;4488569;31;20154;-64
2023/05/16 05:45:14;;;;;;;1.62;1.20;;;;;;;12.12;100.00;98201.53;4492680;31;20133;-64
2023/05/16 05:47:42;;;;;;;10.45;1.73;;;;;;;12.05;100.00;98190.84;4491141;31;20139;-64
2023/05/16 05:50:13;;;;;;;2.70;1.35;;;;;;;12.04;100.00;98197.91;4484684;31;20459;-64
2023/05/16 05:52:41;;;;;;;2.58;1.35;;;;;;;12.14;100.00;98191.69;4484615;31;20148;-64
2023/05/16 05:55:09;;;;;;;2.50;1.48;;;;;;;12.11;100.00;98200.69;4492709;31;20107;-63
2023/05/16 05:57:36;;;;;;;2.75;1.50;;;;;;;12.09;100.00;98191.38;4492093;31;20093;-64
2023/05/16 06:00:04;;;;;;;1.90;1.60;;;;;;;12.11;100.00;98189.38;4490902;31;20171;-64
2023/05/16 06:02:33;;;;;;;1.70;1.50;;;;;;;12.07;100.00;98189.72;4476192;31;20122;-63
2023/05/16 06:05:01;;;;;;;2.45;1.52;;;;;;;12.11;100.00;98179.69;4483230;31;20126;-64
2023/05/16 06:07:29;;;;;;;6.40;1.85;;;;;;;12.14;100.00;98186.44;4483634;31;20088;-64
2023/05/16 06:09:57;;;;;;;4.10;1.60;;;;;;;12.11;100.00;98178.87;4485574;31;20139;-63
2023/05/16 06:12:25;;;;;;;2.87;1.62;;;;;;;12.17;100.00;98181.72;4485567;31;20120;-63
2023/05/16 06:14:52;;;;;;;1.75;1.40;;;;;;;12.22;100.00;98182.03;4479904;31;20145;-64
2023/05/16 06:17:19;;;;;;;5.12;1.42;;;;;;;12.28;100.00;98179.72;4481575;31;20117;-64
2023/05/16 06:19:47;;;;;;;1.87;1.40;;;;;;;12.31;100.00;98179.41;4484550;31;20104;-65
2023/05/16 06:22:14;;;;;;;2.15;1.50;;;;;;;12.30;100.00;98168.09;4479799;31;20390;-65
2023/05/16 06:24:41;;;;;;;4.60;1.27;;;;;;;12.31;100.00;98163.63;4485516;31;20137;-64
2023/05/16 06:27:09;;;;;;;1.92;1.40;;;;;;;12.39;100.00;98171.53;4483575;31;20092;-64
2023/05/16 06:29:36;;;;;;;3.87;1.50;;;;;;;12.38;100.00;98167.25;4481438;31;20192;-64
2023/05/16 06:32:03;;;;;;;3.15;1.50;;;;;;;12.47;100.00;98162.84;4484067;31;20084;-64
2023/05/16 06:34:31;;;;;;;2.03;1.50;;;;;;;12.41;100.00;98157.28;4484365;31;20104;-64
2023/05/16 06:36:58;;;;;;;2.33;1.50;;;;;;;12.43;100.00;98147.41;4482277;31;21019;-65
2023/05/16 06:39:26;;;;;;;2.20;1.75;;;;;;;12.56;100.00;98149.53;4483569;31;20163;-64
2023/05/16 06:41:54;;;;;;;3.03;1.70;;;;;;;12.60;100.00;98153.47;4484792;31;20096;-64
2023/05/16 06:44:22;;;;;;;3.15;2.08;;;;;;;12.65;100.00;98157.41;4484994;31;20145;-64
2023/05/16 06:46:50;;;;;;;5.28;2.30;;;;;;;12.71;100.00;98159.38;4487534;31;20442;-63
2023/05/16 06:49:17;;;;;;;2.90;2.45;;;;;;;12.77;100.00;98158.72;4483509;31;20488;-66
2023/05/16 06:51:44;;;;;;;3.17;2.00;;;;;;;12.76;100.00;98155.28;4485280;31;20116;-65
2023/05/16 06:54:11;;;;;;;4.85;2.87;;;;;;;12.74;100.00;98148.53;4483589;31;20138;-66
2023/05/16 06:56:39;;;;;;;4.85;3.05;;;;;;;12.76;100.00;98160.53;4483079;31;20143;-66
2023/05/16 06:59:06;;;;;;;9.10;3.28;;;;;;;12.78;100.00;98163.81;4483387;31;20122;-63
2023/05/16 07:01:33;;;;;;;6.93;3.55;;;;;;;12.89;100.00;98162.63;4486408;31;20119;-66
2023/05/16 07:04:01;;;;;;;10.55;4.25;;;;;;;13.03;100.00;98152.44;4485606;31;20116;-66
2023/05/16 07:06:28;;;;;;;5.87;3.53;;;;;;;13.23;100.00;98161.59;4486456;31;20114;-66
2023/05/16 07:08:55;;;;;;;4.85;3.10;;;;;;;13.29;100.00;98155.66;4482571;31;20131;-65
2023/05/16 07:11:23;;;;;;;7.22;3.97;;;;;;;13.36;100.00;98157.63;4484040;31;20096;-65
2023/05/16 07:13:50;;;;;;;6.10;4.00;;;;;;;13.26;100.00;98163.87;4484170;31;20167;-66
2023/05/16 07:16:17;;;;;;;11.02;3.45;;;;;;;13.15;100.00;98156.34;4483579;31;20481;-66
2023/05/16 07:18:46;;;;;;;6.78;3.90;;;;;;;13.01;100.00;98149.16;4485683;31;20095;-66
2023/05/16 07:21:13;;;;;;;9.52;4.37;;;;;;;12.80;100.00;98145.25;4486506;31;20498;-64
2023/05/16 07:23:40;;;;;;;7.53;5.28;;;;;;;12.62;100.00;98145.44;4486436;31;20167;-66
2023/05/16 07:26:07;;;;;;;9.07;5.07;;;;;;;12.49;100.00;98145.09;4486234;31;20111;-66
2023/05/16 07:28:35;;;;;;;8.35;5.03;;;;;;;12.37;100.00;98145.44;4482559;31;20116;-66
2023/05/16 07:31:02;;;;;;;8.43;5.47;;;;;;;12.28;100.00;98146.44;4482538;31;20088;-64
2023/05/16 07:33:30;;;;;;;8.02;4.43;;;;;;;12.23;100.00;98146.91;4484026;31;20119;-66
2023/05/16 07:35:57;;;;;;;12.32;5.12;;;;;;;12.23;100.00;98146.06;4485139;31;20120;-67
2023/05/16 07:38:42;;;;;;;6.70;4.85;;;;;;;12.18;100.00;98137.88;4483407;31;20131;-66
2023/05/16 07:41:09;;;;;;;11.35;4.90;;;;;;;12.14;100.00;98141.81;4484892;31;20068;-66
2023/05/16 07:43:36;;;;;;;10.27;5.32;;;;;;;12.19;100.00;98139.53;4483021;31;20457;-66
2023/05/16 07:46:04;;;;;;;8.45;5.43;;;;;;;12.28;100.00;98133.28;4483314;31;20460;-66
2023/05/16 07:48:31;;;;;;;9.75;5.95;;;;;;;12.18;100.00;98127.38;4479420;31;83062;-66
2023/05/16 07:50:59;;;;;;;10.93;5.30;;;;;;;12.20;100.00;98136.75;4485107;31;20775;-67
2023/05/16 07:53:26;;;;;;;10.32;6.07;;;;;;;12.20;100.00;98133.28;4484968;31;20130;-66
2023/05/16 07:55:54;;;;;;;12.88;6.95;;;;;;;12.23;100.00;98136.41;4485894;31;20161;-66
2023/05/16 07:58:21;;;;;;;13.40;6.95;;;;;;;12.28;100.00;98148.22;4483511;31;20088;-65
2023/05/16 08:00:49;;;;;;;14.25;6.93;;;;;;;12.20;100.00;98136.75;4480304;31;20125;-66
2023/05/16 08:03:17;;;;;;;11.25;6.68;;;;;;;12.11;100.00;98134.25;4483417;31;20100;-65
2023/05/16 08:05:45;;;;;;;18.25;8.68;;;;;;;12.11;100.00;98145.56;4484400;31;20111;-66
2023/05/16 08:08:12;;;;;;;13.40;7.12;;;;;;;12.16;100.00;98151.16;4484262;31;21174;-63
2023/05/16 08:10:39;;;;;;;12.85;7.12;;;;;;;12.12;100.00;98149.84;4482780;31;20393;-65
2023/05/16 08:13:07;;;;;;;13.07;7.85;;;;;;;12.16;100.00;98151.16;4482173;31;20103;-66
2023/05/16 08:15:34;;;;;;;21.92;8.98;;;;;;;12.13;100.00;98159.38;4484666;31;20762;-65
2023/05/16 08:18:02;;;;;;;14.50;8.48;;;;;;;12.12;100.00;98149.84;4485694;31;20146;-65
2023/05/16 08:20:29;;;;;;;15.95;9.25;;;;;;;12.15;100.00;98141.63;4488295;31;20434;-64
2023/05/16 08:22:57;;;;;;;16.00;8.55;;;;;;;12.24;100.00;98132.78;4486744;31;20088;-64
2023/05/16 08:25:25;;;;;;;15.35;8.30;;;;;;;12.33;100.00;98124.91;4487490;31;20128;-65
2023/05/16 08:27:52;;;;;;;16.73;9.27;;;;;;;12.31;100.00;98126.87;4484868;31;20152;-65
2023/05/16 08:30:19;;;;;;;13.45;8.63;;;;;;;12.35;100.00;98120.31;4485259;31;20092;-63
2023/05/16 08:32:50;;;;;;;15.60;8.50;;;;;;;12.41;100.00;98130.16;4484793;31;20115;-65
2023/05/16 08:35:17;;;;;;;13.75;7.97;;;;;;;12.34;100.00;98122.12;4483450;31;20122;-65
2023/05/16 08:37:44;;;;;;;11.85;7.47;;;;;;;12.38;100.00;98120.00;4485509;31;20478;-65
2023/05/16 08:40:13;;;;;;;13.85;7.87;;;;;;;12.46;100.00;98121.78;4482203;31;20105;-65
2023/05/16 08:42:40;;;;;;;13.48;7.57;;;;;;;12.58;100.00;98123.94;4482571;31;20457;-65
2023/05/16 08:45:10;;;;;;;17.30;8.27;;;;;;;12.63;100.00;98122.59;4481244;31;20107;-65
2023/05/16 08:47:40;;;;;;;14.55;7.53;;;;;;;12.76;100.00;98115.00;4489826;31;20101;-66
2023/05/16 08:50:09;;;;;;;18.00;8.05;;;;;;;12.99;100.00;98116.94;4486648;31;20105;-66
2023/05/16 08:52:37;;;;;;;17.70;9.02;;;;;;;13.19;100.00;98105.06;4485208;31;20111;-64
2023/05/16 08:55:10;;;;;;;12.45;6.90;;;;;;;13.44;100.00;98104.97;4483042;31;20147;-65
2023/05/16 08:57:39;;;;;;;17.67;8.38;;;;;;;13.33;100.00;98093.00;4481768;31;20103;-65
2023/05/16 09:00:10;;;;;;;19.70;10.15;;;;;;;13.34;100.00;98107.81;4482472;31;20122;-66
2023/05/16 09:02:43;;;;;;;17.08;9.18;;;;;;;13.26;100.00;98106.03;4483817;31;20601;-65
2023/05/16 09:05:12;;;;;;;12.88;6.85;;;;;;;13.27;100.00;98107.62;4487500;31;20100;-66
2023/05/16 09:07:40;;;;;;;13.93;6.37;;;;;;;13.35;100.00;98093.66;4486487;31;21809;-65
2023/05/16 09:10:09;;;;;;;11.27;6.55;;;;;;;13.38;100.00;98098.56;4483327;31;20107;-65
2023/05/16 09:12:37;;;;;;;9.55;5.50;;;;;;;13.56;100.00;98103.59;4476607;31;20159;-66
2023/05/16 09:15:06;;;;;;;11.20;5.95;;;;;;;13.51;100.00;98107.75;4481296;31;20122;-66
2023/05/16 09:17:36;;;;;;;8.93;5.60;;;;;;;13.60;100.00;98111.97;4485030;31;20112;-65
2023/05/16 09:20:16;;;;;;;8.35;5.05;;;;;;;13.47;100.00;98102.84;4487673;31;20496;-66
2023/05/16 09:22:54;;;;;;;8.65;5.62;;;;;;;13.37;100.00;98089.06;4479254;31;20143;-65
2023/05/16 09:25:24;;;;;;;10.48;5.43;;;;;;;13.32;100.00;98089.56;4485013;31;20617;-66
2023/05/16 09:28:16;;;;;;;8.00;4.60;;;;;;;13.36;100.00;98090.03;4486056;31;20104;-65
2023/05/16 09:30:51;;;;;;;8.18;4.75;;;;;;;13.37;100.00;98090.84;4482397;31;20147;-65
2023/05/16 09:33:21;;;;;;;8.65;4.95;;;;;;;13.39;100.00;98088.87;4483237;31;20092;-66
2023/05/16 09:36:00;;;;;;;8.65;4.43;;;;;;;13.31;100.00;98087.09;4481845;31;20478;-67
2023/05/16 09:38:27;;;;;;;7.65;4.55;;;;;;;13.43;100.00;98095.44;4480299;31;20104;-66
2023/05/16 09:40:56;;;;;;;6.78;3.83;;;;;;;13.52;100.00;98097.06;4481944;31;20088;-67
2023/05/16 09:43:26;;;;;;;6.87;4.68;;;;;;;13.46;100.00;98093.28;4480183;31;20172;-68
2023/05/16 09:45:54;;;;;;;7.10;4.65;;;;;;;13.42;100.00;98104.34;4478636;31;20124;-67
2023/05/16 09:48:22;;;;;;;8.43;4.20;;;;;;;13.31;100.00;98108.13;4483353;31;20119;-67
2023/05/16 09:50:51;;;;;;;5.90;3.70;;;;;;;13.30;100.00;98107.28;4484468;31;20100;-67
2023/05/16 09:53:26;;;;;;;8.32;4.37;;;;;;;13.20;100.00;98098.81;4484508;31;20092;-66
2023/05/16 09:56:06;;;;;;;7.37;4.30;;;;;;;13.23;100.00;98093.22;4486687;31;20193;-67
2023/05/16 09:58:36;;;;;;;10.27;4.62;;;;;;;13.27;100.00;98083.97;4488113;31;20111;-68
2023/05/16 10:01:05;;;;;;;8.57;4.18;;;;;;;13.22;100.00;98086.31;4491942;31;20111;-68
2023/05/16 10:03:35;;;;;;;8.43;4.95;;;;;;;13.19;100.00;98072.69;4486109;31;20474;-68
2023/05/16 10:06:04;;;;;;;7.55;4.20;;;;;;;13.08;100.00;98093.09;4487996;31;20104;-68
2023/05/16 10:08:36;;;;;;;10.82;5.10;;;;;;;13.21;100.00;98086.47;4491670;31;20222;-67
2023/05/16 10:11:05;;;;;;;7.90;4.85;;;;;;;13.11;100.00;98084.03;4486439;31;20084;-67
2023/05/16 10:13:34;;;;;;;7.07;4.20;;;;;;;13.19;100.00;98080.56;4489982;31;20103;-68
2023/05/16 10:16:07;;;;;;;8.70;4.62;;;;;;;13.22;100.00;98082.84;4493235;31;20084;-66
2023/05/16 10:18:35;;;;;;;7.72;4.85;;;;;;;13.24;100.00;98080.87;4485458;31;20156;-69
2023/05/16 10:21:05;;;;;;;8.45;5.03;;;;;;;13.25;100.00;98072.81;4487466;31;20157;-67
2023/05/16 10:23:38;;;;;;;8.98;4.93;;;;;;;13.22;100.00;98057.37;4494906;31;20100;-68
2023/05/16 10:26:05;;;;;;;8.43;4.60;;;;;;;13.19;100.00;98068.22;4496988;31;20088;-67
2023/05/16 10:28:34;;;;;;;11.85;5.07;;;;;;;13.16;100.00;98060.69;4496007;31;20463;-68
2023/05/16 10:31:02;;;;;;;8.25;5.22;;;;;;;13.20;100.00;98063.78;4488165;31;20175;-68
2023/05/16 10:33:32;;;;;;;12.43;6.22;;;;;;;13.11;100.00;98066.47;4493304;31;20109;-67
2023/05/16 10:35:59;;;;;;;10.45;5.70;;;;;;;13.12;100.00;98064.63;4489653;31;20124;-67
2023/05/16 10:38:28;;;;;;;10.52;6.05;;;;;;;13.12;100.00;98069.91;4489859;31;20092;-65
2023/05/16 10:40:55;;;;;;;11.52;5.87;;;;;;;13.09;100.00;98070.25;4498119;31;20140;-66
2023/05/16 10:43:27;;;;;;;10.75;6.20;;;;;;;13.27;100.00;98060.28;4491496;31;20127;-65
2023/05/16 10:46:01;;;;;;;9.85;5.22;;;;;;;13.25;100.00;98057.03;4489781;31;20184;-66
2023/05/16 10:48:35;;;;;;;12.40;6.32;;;;;;;13.36;100.00;98031.34;4494289;31;20610;-66
2023/05/16 10:51:32;;;;;;;11.30;6.37;;;;;;;13.55;100.00;98030.91;4491781;31;20169;-65
2023/05/16 10:54:08;;;;;;;9.80;5.75;;;;;;;13.62;100.00;98031.03;4492364;31;20161;-66
2023/05/16 10:56:35;;;;;;;11.88;6.45;;;;;;;13.58;100.00;98037.63;4496101;31;20099;-65
2023/05/16 10:59:03;;;;;;;11.10;6.40;;;;;;;13.65;100.00;98035.94;4492746;31;20091;-65
2023/05/16 11:01:31;;;;;;;12.60;6.95;;;;;;;13.62;100.00;98031.84;4487591;31;20119;-66
2023/05/16 11:04:04;;;;;;;11.98;7.05;;;;;;;13.66;100.00;98027.06;4490942;31;20789;-65
2023/05/16 11:06:32;;;;;;;13.45;6.85;;;;;;;13.69;100.00;98018.81;4493419;31;20819;-65
2023/05/16 11:09:03;;;;;;;10.30;6.53;;;;;;;13.75;100.00;98020.75;4492987;31;21077;-65
2023/05/16 11:11:46;;;;;;;10.90;6.60;;;;;;;13.68;100.00;98013.72;4490273;31;20115;-65
2023/05/16 11:14:20;;;;;;;11.90;6.75;;;;;;;13.73;100.00;98003.47;4493932;31;20123;-65
2023/05/16 11:16:49;;;;;;;10.30;6.00;;;;;;;13.90;100.00;97991.84;4497043;31;20139;-66
2023/05/16 11:19:32;;;;;;;12.13;5.95;;;;;;;13.92;100.00;97999.56;4493946;31;20779;-66
2023/05/16 11:22:08;;;;;;;10.85;6.85;;;;;;;13.95;100.00;97991.28;4493182;31;20533;-66
2023/05/16 11:24:37;;;;;;;8.52;5.05;;;;;;;14.01;100.00;97999.28;4495481;31;20160;-66
2023/05/16 11:27:05;;;;;;;13.68;6.05;;;;;;;14.09;100.00;97992.31;4491837;31;20754;-66
2023/05/16 11:29:34;;;;;;;9.05;5.47;;;;;;;14.14;100.00;97993.44;4488136;31;20127;-65
2023/05/16 11:32:03;;;;;;;10.43;5.57;;;;;;;14.19;100.00;98004.22;4489540;31;20091;-65